Time;durP1;ratioP1;P1;durP2;ratioP2;P2;SDS_P1;SDS_P2;PMS_P1;PMS_P2;Temp;Humidity;BMP_temperature;BMP_pressure;BME280_temperature;BME280_humidity;BME280_pressure;Samples;Min_cycle;Max_cycle;Signal;HPM_P1;HPM_P2
2021/12/11 00:00:29;;;;;;;22.42;12.27;;;;;;;;;;5004749;28;20049;-62
2021/12/11 00:02:59;;;;;;;23.00;13.30;;;;;;;;;;5021758;28;20412;-62
2021/12/11 00:05:26;;;;;;;17.05;10.38;;;;;;;;;;5018102;28;20049;-62
2021/12/11 00:07:52;;;;;;;18.40;10.23;;;;;;;;;;5005289;28;20480;-62
2021/12/11 00:10:24;;;;;;;20.92;11.85;;;;;;;;;;5015724;28;20029;-62
2021/12/11 00:12:52;;;;;;;20.15;11.30;;;;;;;;;;5001343;28;20136;-62
2021/12/11 00:15:21;;;;;;;19.58;10.63;;;;;;;;;;5019525;28;20041;-62
2021/12/11 00:17:48;;;;;;;19.15;11.10;;;;;;;;;;5023232;28;20083;-62
2021/12/11 00:20:18;;;;;;;19.45;11.93;;;;;;;;;;5001904;28;20053;-62
2021/12/11 00:22:45;;;;;;;20.65;10.38;;;;;;;;;;5020475;28;20061;-62
2021/12/11 00:25:12;;;;;;;22.60;10.48;;;;;;;;;;5019109;28;20041;-62
2021/12/11 00:27:39;;;;;;;19.80;11.38;;;;;;;;;;5021125;28;20077;-62
2021/12/11 00:30:10;;;;;;;22.10;10.32;;;;;;;;;;5019465;28;20056;-62
2021/12/11 00:32:36;;;;;;;21.33;13.13;;;;;;;;;;5019862;28;20049;-62
2021/12/11 00:35:06;;;;;;;25.42;14.43;;;;;;;;;;5021556;28;20420;-62
2021/12/11 00:37:32;;;;;;;21.13;13.60;;;;;;;;;;5018847;28;20132;-62
2021/12/11 00:39:59;;;;;;;24.98;13.60;;;;;;;;;;5017419;28;20569;-62
2021/12/11 00:42:32;;;;;;;25.30;12.82;;;;;;;;;;5024375;28;20374;-62
2021/12/11 00:45:01;;;;;;;25.23;13.90;;;;;;;;;;5019392;28;20112;-62
2021/12/11 00:47:28;;;;;;;27.27;14.05;;;;;;;;;;5020832;28;20133;-62
2021/12/11 00:49:58;;;;;;;23.58;12.88;;;;;;;;;;5019108;28;20133;-62
2021/12/11 00:52:33;;;;;;;24.08;12.55;;;;;;;;;;5016222;28;20088;-62
2021/12/11 00:55:01;;;;;;;27.73;14.45;;;;;;;;;;4995978;28;20054;-62
2021/12/11 00:57:27;;;;;;;29.80;15.38;;;;;;;;;;5017562;28;20049;-62
2021/12/11 00:59:59;;;;;;;26.88;13.68;;;;;;;;;;5018808;28;20489;-62
2021/12/11 01:02:25;;;;;;;83.97;18.73;;;;;;;;;;5018133;28;20045;-62
2021/12/11 01:04:52;;;;;;;44.08;18.08;;;;;;;;;;4999613;28;20060;-62
2021/12/11 01:07:20;;;;;;;49.28;19.65;;;;;;;;;;5020658;28;20100;-62
2021/12/11 01:09:49;;;;;;;28.08;15.23;;;;;;;;;;5017753;28;20045;-62
2021/12/11 01:12:20;;;;;;;25.45;14.00;;;;;;;;;;5017385;28;20453;-62
2021/12/11 01:14:52;;;;;;;27.73;14.35;;;;;;;;;;5017028;28;20057;-62
2021/12/11 01:17:26;;;;;;;29.73;14.18;;;;;;;;;;5006382;28;20045;-62
2021/12/11 01:19:59;;;;;;;118.82;23.63;;;;;;;;;;5019081;28;20363;-62
2021/12/11 01:22:35;;;;;;;46.17;19.75;;;;;;;;;;5019754;28;20045;-62
2021/12/11 01:25:05;;;;;;;43.92;21.38;;;;;;;;;;5019724;28;20052;-62
2021/12/11 01:27:33;;;;;;;61.30;23.92;;;;;;;;;;4984196;28;20056;-62
2021/12/11 01:30:00;;;;;;;62.38;24.27;;;;;;;;;;5018838;28;20177;-62
2021/12/11 01:32:27;;;;;;;49.67;20.52;;;;;;;;;;5019424;28;20197;-62
2021/12/11 01:34:54;;;;;;;115.35;22.10;;;;;;;;;;5018791;28;20049;-62
2021/12/11 01:37:20;;;;;;;152.90;26.25;;;;;;;;;;5016677;28;20202;-62
2021/12/11 01:39:49;;;;;;;152.23;26.30;;;;;;;;;;4997520;28;20052;-62
2021/12/11 01:42:18;;;;;;;81.38;22.15;;;;;;;;;;5018736;28;20084;-62
2021/12/11 01:44:45;;;;;;;73.28;22.60;;;;;;;;;;5017044;28;20068;-62
2021/12/11 01:47:14;;;;;;;275.38;30.55;;;;;;;;;;5018580;28;20049;-62
2021/12/11 01:49:43;;;;;;;250.38;29.05;;;;;;;;;;5002694;28;20460;-62
2021/12/11 01:52:13;;;;;;;216.50;23.80;;;;;;;;;;5017257;28;20433;-62
2021/12/11 01:54:40;;;;;;;177.57;27.42;;;;;;;;;;5018105;28;20102;-62
2021/12/11 01:57:17;;;;;;;134.65;22.15;;;;;;;;;;5018407;28;20048;-62
2021/12/11 01:59:47;;;;;;;112.15;20.13;;;;;;;;;;5018100;28;20037;-62
2021/12/11 02:02:16;;;;;;;93.90;21.38;;;;;;;;;;5016543;28;20436;-62
2021/12/11 02:04:43;;;;;;;125.35;20.98;;;;;;;;;;5019230;28;21109;-62
2021/12/11 02:07:12;;;;;;;105.68;23.25;;;;;;;;;;5017193;28;20409;-61
2021/12/11 02:09:39;;;;;;;208.57;23.48;;;;;;;;;;5013342;28;20355;-62
2021/12/11 02:12:10;;;;;;;239.63;25.83;;;;;;;;;;5023730;28;20044;-62
2021/12/11 02:14:41;;;;;;;213.13;23.00;;;;;;;;;;5001618;28;20144;-62
2021/12/11 02:17:17;;;;;;;168.43;21.02;;;;;;;;;;5012035;28;20120;-62
2021/12/11 02:19:44;;;;;;;133.70;21.35;;;;;;;;;;5000774;28;20568;-62
2021/12/11 02:22:12;;;;;;;190.55;24.33;;;;;;;;;;5014813;28;20049;-61
2021/12/11 02:24:38;;;;;;;119.70;19.83;;;;;;;;;;5016943;28;20041;-61
2021/12/11 02:27:09;;;;;;;213.90;20.42;;;;;;;;;;5015969;28;20033;-62
2021/12/11 02:29:37;;;;;;;250.80;24.88;;;;;;;;;;5015701;28;20045;-62
2021/12/11 02:32:32;;;;;;;136.63;22.70;;;;;;;;;;5000672;28;20079;-62
2021/12/11 02:35:08;;;;;;;29.30;16.75;;;;;;;;;;5015615;28;20386;-61
2021/12/11 02:37:39;;;;;;;37.88;17.80;;;;;;;;;;5015219;28;20049;-61
2021/12/11 02:40:12;;;;;;;39.85;21.05;;;;;;;;;;5018647;28;20072;-62
2021/12/11 02:42:41;;;;;;;40.40;19.60;;;;;;;;;;4997941;28;20486;-62
2021/12/11 02:45:08;;;;;;;35.92;19.30;;;;;;;;;;5016295;28;20041;-62
2021/12/11 02:47:40;;;;;;;40.35;20.67;;;;;;;;;;5017581;28;20094;-62
2021/12/11 02:50:07;;;;;;;35.50;18.45;;;;;;;;;;5019276;28;20037;-62
2021/12/11 02:52:40;;;;;;;37.55;18.95;;;;;;;;;;5018222;28;20327;-62
2021/12/11 02:55:10;;;;;;;38.15;19.20;;;;;;;;;;5019074;28;20050;-62
2021/12/11 02:57:38;;;;;;;37.85;20.13;;;;;;;;;;5016739;28;20136;-62
2021/12/11 03:00:12;;;;;;;43.13;21.60;;;;;;;;;;5015540;28;20449;-62
2021/12/11 03:02:44;;;;;;;66.57;25.35;;;;;;;;;;5017813;28;20041;-62
2021/12/11 03:05:12;;;;;;;62.45;26.17;;;;;;;;;;5019078;28;20060;-62
2021/12/11 03:07:44;;;;;;;52.85;26.20;;;;;;;;;;5004312;28;20061;-62
2021/12/11 03:10:13;;;;;;;42.03;20.45;;;;;;;;;;5021310;28;20053;-62
2021/12/11 03:12:40;;;;;;;35.80;19.45;;;;;;;;;;5019876;28;20056;-62
2021/12/11 03:15:07;;;;;;;39.83;20.75;;;;;;;;;;5016726;28;20067;-62
2021/12/11 03:17:34;;;;;;;46.20;20.38;;;;;;;;;;5015873;28;20121;-62
2021/12/11 03:20:00;;;;;;;35.20;19.98;;;;;;;;;;5022560;28;20038;-62
2021/12/11 03:22:30;;;;;;;39.38;20.77;;;;;;;;;;5019645;28;20132;-62
2021/12/11 03:24:56;;;;;;;40.13;19.33;;;;;;;;;;5021152;28;20389;-62
2021/12/11 03:27:23;;;;;;;41.83;20.50;;;;;;;;;;5019208;28;20366;-62
2021/12/11 03:29:49;;;;;;;51.45;21.45;;;;;;;;;;5023341;28;20045;-62
2021/12/11 03:32:15;;;;;;;41.42;20.25;;;;;;;;;;5026642;28;21147;-62
2021/12/11 03:34:42;;;;;;;40.15;20.35;;;;;;;;;;4998879;28;20123;-62
2021/12/11 03:37:10;;;;;;;41.13;20.48;;;;;;;;;;5022176;28;20077;-62
2021/12/11 03:39:38;;;;;;;39.70;20.95;;;;;;;;;;5022920;28;20045;-62
2021/12/11 03:42:07;;;;;;;41.28;22.30;;;;;;;;;;5026355;28;20045;-62
2021/12/11 03:44:33;;;;;;;36.67;18.65;;;;;;;;;;5020977;28;20092;-62
2021/12/11 03:47:05;;;;;;;34.65;17.55;;;;;;;;;;5014598;28;20041;-61
2021/12/11 03:49:31;;;;;;;35.83;16.75;;;;;;;;;;5022233;28;20046;-62
2021/12/11 03:51:57;;;;;;;31.30;17.02;;;;;;;;;;5016823;28;20124;-62
2021/12/11 03:54:26;;;;;;;30.60;15.95;;;;;;;;;;5024216;28;20045;-62
2021/12/11 03:56:53;;;;;;;34.03;18.60;;;;;;;;;;5021762;28;20037;-62
2021/12/11 03:59:19;;;;;;;35.72;17.15;;;;;;;;;;5009877;28;20378;-61
2021/12/11 04:01:50;;;;;;;34.65;18.00;;;;;;;;;;5028872;28;20361;-61
2021/12/11 04:04:17;;;;;;;39.45;20.02;;;;;;;;;;5022890;28;20038;-61
2021/12/11 04:06:44;;;;;;;40.92;21.42;;;;;;;;;;5025791;28;20054;-61
2021/12/11 04:09:11;;;;;;;37.80;19.95;;;;;;;;;;5024973;28;20566;-62
2021/12/11 04:11:38;;;;;;;39.05;21.25;;;;;;;;;;5022650;28;20041;-61
2021/12/11 04:14:06;;;;;;;41.63;20.75;;;;;;;;;;5016243;28;20050;-62
2021/12/11 04:16:33;;;;;;;40.33;19.77;;;;;;;;;;5021247;28;20400;-61
2021/12/11 04:18:59;;;;;;;34.30;19.17;;;;;;;;;;5003574;28;20059;-61
2021/12/11 04:21:26;;;;;;;34.05;19.55;;;;;;;;;;4997383;28;20050;-62
2021/12/11 04:23:52;;;;;;;34.83;18.05;;;;;;;;;;5015661;28;20099;-62
2021/12/11 04:26:19;;;;;;;33.25;17.00;;;;;;;;;;5021459;28;20128;-62
2021/12/11 04:28:46;;;;;;;31.92;16.88;;;;;;;;;;5018541;28;20040;-62
2021/12/11 04:31:15;;;;;;;31.88;16.35;;;;;;;;;;5016268;28;20045;-62
2021/12/11 04:33:43;;;;;;;29.55;15.85;;;;;;;;;;5020874;28;20456;-62
2021/12/11 04:36:12;;;;;;;32.50;17.30;;;;;;;;;;5020268;28;20066;-62
2021/12/11 04:38:38;;;;;;;36.28;18.15;;;;;;;;;;5016728;28;20105;-62
2021/12/11 04:41:06;;;;;;;37.97;21.00;;;;;;;;;;5020044;28;20172;-62
2021/12/11 04:43:34;;;;;;;38.10;19.17;;;;;;;;;;5018127;28;20099;-62
2021/12/11 04:46:05;;;;;;;31.15;17.80;;;;;;;;;;5020954;28;20049;-62
2021/12/11 04:48:46;;;;;;;32.55;19.08;;;;;;;;;;5020056;28;20096;-62
2021/12/11 04:51:23;;;;;;;40.70;17.63;;;;;;;;;;5001416;28;20065;-62
2021/12/11 04:54:25;;;;;;;33.25;18.52;;;;;;;;;;5018502;28;20049;-62
2021/12/11 04:59:39;;;;;;;31.20;16.77;;;;;;;;;;5019988;28;20417;-62
2021/12/11 05:07:31;;;;;;;33.30;19.10;;;;;;;;;;5018462;28;20083;-61
2021/12/11 05:10:08;;;;;;;31.90;17.40;;;;;;;;;;5018147;28;20045;-62
2021/12/11 05:12:35;;;;;;;29.02;16.33;;;;;;;;;;5015752;28;20060;-61
2021/12/11 05:15:05;;;;;;;32.08;16.73;;;;;;;;;;5016822;28;20107;-62
2021/12/11 05:17:32;;;;;;;27.60;15.05;;;;;;;;;;5019472;28;20072;-62
2021/12/11 05:19:58;;;;;;;26.88;14.15;;;;;;;;;;5020542;28;20392;-61
2021/12/11 05:22:24;;;;;;;22.70;13.02;;;;;;;;;;5018598;28;20042;-61
2021/12/11 05:24:52;;;;;;;41.53;12.52;;;;;;;;;;5018494;28;20342;-62
2021/12/11 05:27:19;;;;;;;66.75;14.85;;;;;;;;;;5019195;28;20038;-61
2021/12/11 05:29:45;;;;;;;187.27;18.15;;;;;;;;;;4998817;28;20061;-61
2021/12/11 05:32:12;;;;;;;26.08;12.70;;;;;;;;;;5020021;28;20492;-61
2021/12/11 05:34:39;;;;;;;25.98;14.20;;;;;;;;;;5016134;28;20084;-61
2021/12/11 05:37:05;;;;;;;28.60;13.82;;;;;;;;;;5015091;28;20057;-61
2021/12/11 05:39:32;;;;;;;36.70;14.93;;;;;;;;;;5001309;28;20685;-61
2021/12/11 05:41:58;;;;;;;195.60;20.75;;;;;;;;;;5003914;28;20063;-61
2021/12/11 05:44:25;;;;;;;46.22;17.52;;;;;;;;;;5002168;28;20042;-61
2021/12/11 05:46:52;;;;;;;133.45;21.17;;;;;;;;;;5020274;28;20042;-61
2021/12/11 05:49:18;;;;;;;197.63;22.20;;;;;;;;;;5021282;28;20044;-61
2021/12/11 05:51:46;;;;;;;178.48;21.75;;;;;;;;;;5012825;28;20048;-61
2021/12/11 05:54:15;;;;;;;214.05;26.33;;;;;;;;;;5014877;28;20516;-61
2021/12/11 05:56:42;;;;;;;77.38;21.10;;;;;;;;;;5012972;28;20049;-61
2021/12/11 05:59:09;;;;;;;41.78;17.88;;;;;;;;;;5022200;28;20034;-61
2021/12/11 06:01:38;;;;;;;59.65;17.52;;;;;;;;;;5029568;28;20087;-61
2021/12/11 06:04:06;;;;;;;37.28;18.00;;;;;;;;;;5014917;28;20121;-61
2021/12/11 06:06:33;;;;;;;50.58;17.42;;;;;;;;;;5017853;28;20096;-60
2021/12/11 06:08:59;;;;;;;91.43;19.88;;;;;;;;;;5024553;28;20045;-61
2021/12/11 06:11:26;;;;;;;43.22;18.75;;;;;;;;;;5024381;28;20045;-61
2021/12/11 06:13:52;;;;;;;37.33;17.77;;;;;;;;;;5022721;28;20030;-61
2021/12/11 06:16:19;;;;;;;31.65;17.15;;;;;;;;;;5025860;28;20056;-61
2021/12/11 06:18:45;;;;;;;151.52;23.20;;;;;;;;;;5028593;28;20053;-61
2021/12/11 06:21:12;;;;;;;207.35;20.02;;;;;;;;;;5026486;28;20040;-61
2021/12/11 06:23:38;;;;;;;145.38;18.00;;;;;;;;;;5005726;28;20517;-61
2021/12/11 06:26:04;;;;;;;244.30;27.15;;;;;;;;;;5004286;28;20107;-61
2021/12/11 06:28:31;;;;;;;163.82;28.05;;;;;;;;;;5004710;28;20053;-61
2021/12/11 06:30:58;;;;;;;162.40;23.20;;;;;;;;;;5003843;28;20057;-61
2021/12/11 06:33:26;;;;;;;131.52;21.15;;;;;;;;;;5000368;28;20046;-61
2021/12/11 06:35:56;;;;;;;105.22;19.08;;;;;;;;;;5022000;28;20083;-61
2021/12/11 06:38:23;;;;;;;173.80;19.45;;;;;;;;;;5018542;28;20049;-61
2021/12/11 06:40:50;;;;;;;104.35;19.73;;;;;;;;;;5011421;28;20128;-62
2021/12/11 06:43:16;;;;;;;112.97;23.65;;;;;;;;;;4999060;28;20385;-61
2021/12/11 06:45:43;;;;;;;45.78;20.52;;;;;;;;;;4997006;28;20153;-62
2021/12/11 06:48:09;;;;;;;50.90;21.10;;;;;;;;;;5030291;28;20041;-62
2021/12/11 06:50:35;;;;;;;72.38;21.45;;;;;;;;;;5006087;28;20060;-62
2021/12/11 06:53:05;;;;;;;84.75;23.52;;;;;;;;;;5029811;28;20037;-62
2021/12/11 06:55:31;;;;;;;52.00;22.20;;;;;;;;;;5030200;28;20049;-61
2021/12/11 06:57:58;;;;;;;36.38;19.23;;;;;;;;;;5017774;28;20042;-62
2021/12/11 07:00:26;;;;;;;40.22;18.50;;;;;;;;;;5000117;28;20091;-62
2021/12/11 07:02:52;;;;;;;36.20;19.02;;;;;;;;;;5029678;28;20053;-62
2021/12/11 07:05:19;;;;;;;38.88;19.92;;;;;;;;;;5012515;28;20175;-62
2021/12/11 07:07:46;;;;;;;35.28;16.25;;;;;;;;;;5016765;28;20100;-61
2021/12/11 07:10:13;;;;;;;36.30;17.90;;;;;;;;;;4996700;28;20449;-61
2021/12/11 07:12:40;;;;;;;35.80;18.35;;;;;;;;;;5002646;28;20049;-60
2021/12/11 07:15:09;;;;;;;39.38;19.38;;;;;;;;;;5004608;28;20128;-60
2021/12/11 07:17:36;;;;;;;40.45;17.95;;;;;;;;;;5008233;28;20085;-61
2021/12/11 07:20:04;;;;;;;66.88;19.85;;;;;;;;;;5000057;28;20034;-61
2021/12/11 07:22:30;;;;;;;168.57;24.92;;;;;;;;;;5022059;28;20092;-61
2021/12/11 07:25:00;;;;;;;158.30;25.02;;;;;;;;;;5006949;28;20037;-61
2021/12/11 07:27:27;;;;;;;179.45;26.45;;;;;;;;;;5004363;28;20057;-61
2021/12/11 07:29:53;;;;;;;209.02;28.10;;;;;;;;;;5028288;28;20120;-61
2021/12/11 07:32:19;;;;;;;158.43;25.58;;;;;;;;;;5000832;28;20045;-61
2021/12/11 07:34:45;;;;;;;214.73;28.92;;;;;;;;;;5021903;28;20042;-61
2021/12/11 07:37:11;;;;;;;189.50;26.10;;;;;;;;;;5000628;28;20207;-61
2021/12/11 07:39:38;;;;;;;157.05;25.38;;;;;;;;;;5019209;28;20049;-61
2021/12/11 07:42:04;;;;;;;178.10;25.85;;;;;;;;;;5019012;28;20389;-61
2021/12/11 07:44:31;;;;;;;154.15;25.27;;;;;;;;;;5021127;28;20041;-62
2021/12/11 07:46:57;;;;;;;163.10;24.38;;;;;;;;;;5020681;28;20049;-63
2021/12/11 07:49:24;;;;;;;142.40;24.38;;;;;;;;;;5017756;28;20041;-61
2021/12/11 07:51:50;;;;;;;128.05;24.10;;;;;;;;;;5004356;28;21022;-61
2021/12/11 07:54:16;;;;;;;214.10;25.58;;;;;;;;;;5026023;28;20132;-61
2021/12/11 07:56:43;;;;;;;199.70;26.40;;;;;;;;;;5024518;28;20052;-61
2021/12/11 07:59:10;;;;;;;194.85;26.17;;;;;;;;;;5001029;28;20072;-61
2021/12/11 08:01:39;;;;;;;206.73;26.95;;;;;;;;;;5022278;28;20124;-61
2021/12/11 08:04:05;;;;;;;186.75;26.73;;;;;;;;;;5021552;28;20415;-61
2021/12/11 08:06:33;;;;;;;158.85;25.25;;;;;;;;;;4997735;28;20046;-61
2021/12/11 08:09:00;;;;;;;186.88;25.10;;;;;;;;;;4998426;28;20501;-61
2021/12/11 08:11:28;;;;;;;176.80;23.92;;;;;;;;;;5000632;28;20038;-61
2021/12/11 08:13:55;;;;;;;210.88;24.40;;;;;;;;;;5000119;28;20056;-61
2021/12/11 08:16:24;;;;;;;195.13;27.65;;;;;;;;;;5032597;28;20504;-61
2021/12/11 08:18:52;;;;;;;205.40;27.98;;;;;;;;;;5018235;28;20383;-61
2021/12/11 08:21:18;;;;;;;175.52;25.83;;;;;;;;;;5029434;28;20092;-61
2021/12/11 08:23:47;;;;;;;138.75;27.13;;;;;;;;;;5012582;28;20777;-61
2021/12/11 08:26:16;;;;;;;174.98;27.75;;;;;;;;;;5014078;28;20053;-61
2021/12/11 08:28:42;;;;;;;160.05;27.25;;;;;;;;;;5013107;28;20050;-62
2021/12/11 08:31:08;;;;;;;165.00;27.60;;;;;;;;;;5018137;28;20164;-61
2021/12/11 08:33:35;;;;;;;139.32;28.27;;;;;;;;;;5023483;28;20052;-61
2021/12/11 08:36:01;;;;;;;112.22;28.65;;;;;;;;;;5022548;28;20050;-61
2021/12/11 08:38:28;;;;;;;111.72;28.15;;;;;;;;;;5006479;28;20117;-61
2021/12/11 08:40:56;;;;;;;79.65;25.63;;;;;;;;;;5007620;28;20049;-61
2021/12/11 08:43:23;;;;;;;124.60;29.25;;;;;;;;;;5024118;28;20038;-61
2021/12/11 08:46:00;;;;;;;96.57;26.48;;;;;;;;;;5007264;28;20567;-61
2021/12/11 08:48:28;;;;;;;117.47;26.30;;;;;;;;;;5006011;28;20459;-61
2021/12/11 08:51:01;;;;;;;112.63;26.70;;;;;;;;;;5022624;28;20133;-61
2021/12/11 08:53:27;;;;;;;106.35;26.95;;;;;;;;;;5022323;28;20049;-61
2021/12/11 08:55:54;;;;;;;84.45;26.25;;;;;;;;;;5025052;28;20048;-62
2021/12/11 08:58:20;;;;;;;97.70;27.08;;;;;;;;;;5020958;28;20388;-61
2021/12/11 09:00:57;;;;;;;87.30;25.38;;;;;;;;;;5010148;28;20042;-61
2021/12/11 09:03:34;;;;;;;64.07;23.40;;;;;;;;;;5004522;28;20057;-61
2021/12/11 09:06:06;;;;;;;50.33;22.85;;;;;;;;;;5023895;28;20187;-62
2021/12/11 09:08:36;;;;;;;52.50;21.23;;;;;;;;;;5024297;28;20096;-62
2021/12/11 09:11:07;;;;;;;50.92;20.50;;;;;;;;;;5024756;28;20142;-62
2021/12/11 09:13:38;;;;;;;53.45;20.27;;;;;;;;;;5027442;28;20069;-62
2021/12/11 09:16:08;;;;;;;70.78;23.15;;;;;;;;;;5024080;28;20128;-62
2021/12/11 09:18:38;;;;;;;65.40;21.92;;;;;;;;;;5023988;28;20034;-62
2021/12/11 09:21:07;;;;;;;58.67;21.83;;;;;;;;;;5006625;28;20094;-62
2021/12/11 09:23:38;;;;;;;72.88;23.38;;;;;;;;;;5027692;28;20075;-62
2021/12/11 09:26:15;;;;;;;99.38;27.52;;;;;;;;;;5021455;28;20041;-62
2021/12/11 09:28:44;;;;;;;78.65;26.02;;;;;;;;;;5021914;28;20346;-62
2021/12/11 09:31:20;;;;;;;89.97;27.55;;;;;;;;;;5024202;28;20075;-62
2021/12/11 09:33:51;;;;;;;88.55;26.73;;;;;;;;;;5026857;28;20050;-62
2021/12/11 09:36:22;;;;;;;69.90;27.30;;;;;;;;;;5025601;28;20050;-63
2021/12/11 09:38:52;;;;;;;66.60;26.50;;;;;;;;;;5025106;28;20383;-62
2021/12/11 09:41:24;;;;;;;59.03;27.75;;;;;;;;;;5026870;28;20073;-62
2021/12/11 09:43:51;;;;;;;62.22;28.42;;;;;;;;;;5026541;28;20033;-62
2021/12/11 09:46:21;;;;;;;58.90;27.33;;;;;;;;;;5022895;28;20450;-62
2021/12/11 09:48:48;;;;;;;58.55;28.10;;;;;;;;;;5010581;28;20052;-62
2021/12/11 09:51:18;;;;;;;61.13;28.58;;;;;;;;;;5010466;28;20374;-62
2021/12/11 09:53:47;;;;;;;52.75;26.95;;;;;;;;;;5009711;28;20045;-62
2021/12/11 09:56:17;;;;;;;55.45;28.77;;;;;;;;;;5028136;28;20053;-62
2021/12/11 09:58:43;;;;;;;55.78;27.10;;;;;;;;;;5027846;28;20041;-62
2021/12/11 10:01:13;;;;;;;54.92;27.73;;;;;;;;;;5002941;28;20060;-68
2021/12/11 10:03:45;;;;;;;57.40;29.35;;;;;;;;;;5028433;28;20056;-62
2021/12/11 10:06:26;;;;;;;58.80;29.63;;;;;;;;;;5010688;28;20128;-62
2021/12/11 10:09:08;;;;;;;58.45;28.85;;;;;;;;;;5021905;28;20082;-61
2021/12/11 10:11:35;;;;;;;57.22;29.85;;;;;;;;;;5020057;28;20045;-61
2021/12/11 10:14:05;;;;;;;66.72;31.50;;;;;;;;;;5022230;28;20063;-62
2021/12/11 10:16:33;;;;;;;68.50;35.72;;;;;;;;;;5022226;28;20045;-62
2021/12/11 10:19:00;;;;;;;58.90;32.33;;;;;;;;;;5010777;28;20069;-63
2021/12/11 10:21:32;;;;;;;56.83;32.58;;;;;;;;;;4999307;28;20556;-63
2021/12/11 10:24:01;;;;;;;63.95;33.63;;;;;;;;;;5016930;28;20497;-63
2021/12/11 10:26:29;;;;;;;66.97;32.63;;;;;;;;;;5004130;28;20076;-63
2021/12/11 10:28:57;;;;;;;63.22;28.77;;;;;;;;;;5021852;28;20116;-63
2021/12/11 10:31:26;;;;;;;47.00;27.98;;;;;;;;;;5008597;28;20562;-63
2021/12/11 10:33:53;;;;;;;41.53;26.65;;;;;;;;;;5021958;28;20037;-62
2021/12/11 10:36:21;;;;;;;42.78;26.80;;;;;;;;;;5024675;28;20060;-63
2021/12/11 10:38:48;;;;;;;45.28;27.08;;;;;;;;;;5022651;28;20045;-63
2021/12/11 10:41:16;;;;;;;43.55;24.40;;;;;;;;;;5003843;28;20050;-63
2021/12/11 10:43:46;;;;;;;50.10;25.70;;;;;;;;;;5003783;28;20046;-62
2021/12/11 10:46:14;;;;;;;45.10;25.27;;;;;;;;;;4983964;28;20080;-63
2021/12/11 10:48:42;;;;;;;44.88;25.30;;;;;;;;;;5011263;28;20042;-62
2021/12/11 10:51:08;;;;;;;47.67;26.75;;;;;;;;;;5017356;28;20115;-63
2021/12/11 10:53:35;;;;;;;48.63;26.75;;;;;;;;;;5023443;28;20041;-62
2021/12/11 10:56:03;;;;;;;49.67;26.88;;;;;;;;;;5026749;28;20053;-63
2021/12/11 10:58:32;;;;;;;47.00;25.70;;;;;;;;;;5025081;28;20076;-63
2021/12/11 11:06:48;;;;;;;46.97;26.17;;;;;;;;;;5129854;27;20559;-62
2021/12/11 11:09:15;;;;;;;53.35;28.30;;;;;;;;;;5124784;27;20088;-62
2021/12/11 11:11:43;;;;;;;53.63;29.85;;;;;;;;;;5125272;27;20402;-62
2021/12/11 11:14:10;;;;;;;58.15;29.60;;;;;;;;;;5126449;28;20101;-63
2021/12/11 11:16:38;;;;;;;54.10;30.17;;;;;;;;;;5120156;27;20040;-62
2021/12/11 11:19:04;;;;;;;67.20;33.50;;;;;;;;;;5122812;28;20047;-63
2021/12/11 11:21:34;;;;;;;67.72;34.92;;;;;;;;;;5117492;27;20081;-63
2021/12/11 11:24:01;;;;;;;56.97;36.28;;;;;;;;;;5108760;28;20056;-63
2021/12/11 11:26:29;;;;;;;56.35;32.80;;;;;;;;;;5109442;28;20103;-63
2021/12/11 11:28:57;;;;;;;51.10;30.15;;;;;;;;;;5113558;28;20332;-64
2021/12/11 11:31:26;;;;;;;59.53;32.90;;;;;;;;;;5109333;28;20040;-64
2021/12/11 11:33:52;;;;;;;51.20;30.23;;;;;;;;;;5112926;28;20071;-63
2021/12/11 11:36:20;;;;;;;39.88;26.80;;;;;;;;;;5108807;28;20058;-64
2021/12/11 11:38:50;;;;;;;36.88;24.48;;;;;;;;;;5115822;28;20079;-63
2021/12/11 11:41:19;;;;;;;34.80;22.98;;;;;;;;;;5108846;28;20035;-64
2021/12/11 11:43:45;;;;;;;37.42;24.83;;;;;;;;;;5109667;28;20084;-65
2021/12/11 11:46:11;;;;;;;38.60;24.15;;;;;;;;;;5085588;28;20076;-63
2021/12/11 11:48:39;;;;;;;42.90;24.73;;;;;;;;;;5100835;28;20098;-63
2021/12/11 11:51:08;;;;;;;41.42;25.20;;;;;;;;;;5113630;28;20117;-63
2021/12/11 11:53:34;;;;;;;42.90;26.05;;;;;;;;;;5105224;28;20088;-63
2021/12/11 11:56:04;;;;;;;54.25;31.20;;;;;;;;;;5114970;28;20066;-63
2021/12/11 11:58:31;;;;;;;50.30;30.05;;;;;;;;;;5118721;28;20317;-63
2021/12/11 12:01:01;;;;;;;51.53;29.98;;;;;;;;;;5112584;27;20031;-63
2021/12/11 12:03:29;;;;;;;57.25;29.33;;;;;;;;;;5113542;28;20120;-65
2021/12/11 12:05:58;;;;;;;57.42;29.95;;;;;;;;;;5112632;28;20039;-63
2021/12/11 12:08:25;;;;;;;65.75;33.35;;;;;;;;;;5107263;28;20120;-63
2021/12/11 12:10:52;;;;;;;51.90;30.02;;;;;;;;;;5107516;28;20048;-63
2021/12/11 12:13:22;;;;;;;49.75;28.80;;;;;;;;;;5112766;28;20035;-63
2021/12/11 12:15:51;;;;;;;48.10;27.80;;;;;;;;;;5114501;27;20053;-63
2021/12/11 12:18:18;;;;;;;49.08;26.88;;;;;;;;;;5088850;28;20119;-63
2021/12/11 12:20:45;;;;;;;54.47;29.88;;;;;;;;;;5082870;28;20062;-63
2021/12/11 12:23:12;;;;;;;48.63;27.33;;;;;;;;;;5083526;28;20036;-63
2021/12/11 12:25:40;;;;;;;46.75;26.88;;;;;;;;;;5082817;28;20036;-63
2021/12/11 12:28:06;;;;;;;48.35;28.00;;;;;;;;;;5085265;28;20043;-63
2021/12/11 12:30:38;;;;;;;53.25;28.65;;;;;;;;;;5091345;28;20458;-63
2021/12/11 12:33:05;;;;;;;52.85;28.38;;;;;;;;;;5105326;28;20555;-69
2021/12/11 12:35:32;;;;;;;51.80;30.35;;;;;;;;;;5100619;28;20047;-63
2021/12/11 12:38:00;;;;;;;52.78;27.80;;;;;;;;;;5096248;28;20040;-63
2021/12/11 12:40:29;;;;;;;46.25;26.05;;;;;;;;;;5102048;28;20482;-63
2021/12/11 12:43:05;;;;;;;46.75;27.38;;;;;;;;;;5099032;28;20044;-63
2021/12/11 12:45:33;;;;;;;49.88;27.10;;;;;;;;;;5096572;28;20040;-63
2021/12/11 12:48:05;;;;;;;44.03;25.48;;;;;;;;;;5098078;28;20063;-62
2021/12/11 12:50:35;;;;;;;45.30;25.88;;;;;;;;;;5097350;28;20090;-62
2021/12/11 12:53:02;;;;;;;42.40;24.27;;;;;;;;;;5097206;28;20107;-62
2021/12/11 12:55:32;;;;;;;44.33;23.75;;;;;;;;;;5093071;28;20119;-62
2021/12/11 12:57:59;;;;;;;36.45;23.75;;;;;;;;;;5095955;28;20056;-63
2021/12/11 13:00:35;;;;;;;37.95;22.58;;;;;;;;;;5094656;28;20123;-62
2021/12/11 13:03:05;;;;;;;32.47;20.92;;;;;;;;;;5090648;28;20040;-62
2021/12/11 13:05:35;;;;;;;41.97;22.50;;;;;;;;;;5095444;28;20048;-63
2021/12/11 13:08:04;;;;;;;38.08;21.80;;;;;;;;;;5094109;28;20040;-63
2021/12/11 13:10:33;;;;;;;32.97;21.13;;;;;;;;;;5092601;28;20511;-63
2021/12/11 13:13:01;;;;;;;34.88;20.35;;;;;;;;;;5092903;28;20043;-63
2021/12/11 13:15:30;;;;;;;39.35;19.98;;;;;;;;;;5094309;28;20036;-63
2021/12/11 13:17:58;;;;;;;31.85;20.08;;;;;;;;;;5092916;28;20398;-62
2021/12/11 13:20:30;;;;;;;36.35;20.40;;;;;;;;;;5091951;28;20100;-62
2021/12/11 13:22:56;;;;;;;34.55;20.83;;;;;;;;;;5092168;28;20161;-62
2021/12/11 13:25:25;;;;;;;32.40;19.40;;;;;;;;;;5088050;28;20376;-63
2021/12/11 13:27:54;;;;;;;35.92;19.40;;;;;;;;;;5092366;28;20052;-63
2021/12/11 13:30:23;;;;;;;35.55;19.65;;;;;;;;;;5091644;28;20040;-62
2021/12/11 13:32:49;;;;;;;29.77;18.75;;;;;;;;;;5091082;28;20423;-62
2021/12/11 13:35:19;;;;;;;27.88;17.45;;;;;;;;;;5092544;28;20032;-63
2021/12/11 13:37:46;;;;;;;28.15;17.75;;;;;;;;;;5103415;28;20042;-63
2021/12/11 13:40:14;;;;;;;31.95;18.02;;;;;;;;;;5100179;28;20076;-63
2021/12/11 13:42:41;;;;;;;29.20;17.08;;;;;;;;;;5110875;28;20069;-63
2021/12/11 13:45:11;;;;;;;30.75;17.27;;;;;;;;;;5110352;28;20043;-63
2021/12/11 13:47:37;;;;;;;29.80;16.40;;;;;;;;;;5089312;28;20048;-63
2021/12/11 13:50:08;;;;;;;29.13;16.90;;;;;;;;;;5091815;28;20093;-63
2021/12/11 13:52:34;;;;;;;36.17;18.17;;;;;;;;;;5092288;28;20566;-63
2021/12/11 13:55:00;;;;;;;34.25;18.70;;;;;;;;;;5093069;28;20085;-63
2021/12/11 13:57:27;;;;;;;27.92;16.38;;;;;;;;;;5103980;28;20131;-63
2021/12/11 13:59:55;;;;;;;32.03;16.45;;;;;;;;;;5111337;28;20483;-63
2021/12/11 14:02:22;;;;;;;32.78;18.17;;;;;;;;;;5107657;28;20470;-63
2021/12/11 14:04:48;;;;;;;35.25;20.15;;;;;;;;;;5112168;28;20112;-63
2021/12/11 14:07:19;;;;;;;30.25;18.38;;;;;;;;;;5103611;28;20581;-63
2021/12/11 14:09:49;;;;;;;34.30;19.35;;;;;;;;;;5098728;28;20039;-63
2021/12/11 14:12:16;;;;;;;33.45;18.92;;;;;;;;;;5110587;28;20035;-63
2021/12/11 14:14:43;;;;;;;47.72;19.88;;;;;;;;;;5092094;28;20051;-63
2021/12/11 14:17:10;;;;;;;34.50;19.70;;;;;;;;;;5092866;28;20136;-63
2021/12/11 14:19:36;;;;;;;40.95;21.17;;;;;;;;;;5092653;28;20047;-63
2021/12/11 14:22:05;;;;;;;46.17;22.52;;;;;;;;;;5090849;28;20040;-63
2021/12/11 14:24:31;;;;;;;45.15;22.83;;;;;;;;;;5091326;28;20040;-63
2021/12/11 14:26:58;;;;;;;39.63;22.20;;;;;;;;;;5091961;28;20056;-63
2021/12/11 14:29:25;;;;;;;41.88;21.13;;;;;;;;;;5101397;28;20047;-63
2021/12/11 14:31:51;;;;;;;50.20;23.33;;;;;;;;;;5098194;28;20107;-63
2021/12/11 14:34:17;;;;;;;42.85;22.25;;;;;;;;;;5091675;28;20127;-63